sensor_id;sensor_type;location;lat;lon;timestamp;pressure;altitude;pressure_sealevel;temperature;humidity
60583;BME280;46415;47.536;19.066;2023-08-20T00:03:10;-18779.22;;;20.32;100.00
60583;BME280;46415;47.536;19.066;2023-08-20T00:06:13;-18778.94;;;20.31;100.00
60583;BME280;46415;47.536;19.066;2023-08-20T00:09:16;-18777.03;;;20.24;100.00
60583;BME280;46415;47.536;19.066;2023-08-20T00:12:19;-18776.78;;;20.23;100.00
60583;BME280;46415;47.536;19.066;2023-08-20T00:15:21;-18776.38;;;20.21;100.00
60583;BME280;46415;47.536;19.066;2023-08-20T00:18:28;-18775.69;;;20.19;100.00
60583;BME280;46415;47.536;19.066;2023-08-20T00:21:31;-18775.28;;;20.17;100.00
60583;BME280;46415;47.536;19.066;2023-08-20T00:24:34;-18774.87;;;20.16;100.00
60583;BME280;46415;47.536;19.066;2023-08-20T00:27:36;-18774.72;;;20.15;100.00
60583;BME280;46415;47.536;19.066;2023-08-20T00:30:39;-18774.87;;;20.16;100.00
60583;BME280;46415;47.536;19.066;2023-08-20T00:33:42;-18774.06;;;20.13;100.00
60583;BME280;46415;47.536;19.066;2023-08-20T00:36:58;-18773.50;;;20.11;100.00
60583;BME280;46415;47.536;19.066;2023-08-20T00:40:01;-18773.66;;;20.11;100.00
60583;BME280;46415;47.536;19.066;2023-08-20T00:43:07;-18772.97;;;20.09;100.00
60583;BME280;46415;47.536;19.066;2023-08-20T00:46:10;-18772.44;;;20.07;100.00
60583;BME280;46415;47.536;19.066;2023-08-20T00:49:13;-18772.16;;;20.06;100.00
60583;BME280;46415;47.536;19.066;2023-08-20T00:52:16;-18771.63;;;20.04;100.00
60583;BME280;46415;47.536;19.066;2023-08-20T00:55:20;-18770.66;;;20.00;100.00
60583;BME280;46415;47.536;19.066;2023-08-20T00:58:22;-18769.84;;;19.97;100.00
60583;BME280;46415;47.536;19.066;2023-08-20T01:01:25;-18769.72;;;19.96;100.00
60583;BME280;46415;47.536;19.066;2023-08-20T01:04:28;-18768.63;;;19.92;100.00
60583;BME280;46415;47.536;19.066;2023-08-20T01:10:56;-18772.28;;;20.06;100.00
60583;BME280;46415;47.536;19.066;2023-08-20T01:14:00;-18773.25;;;20.10;100.00
60583;BME280;46415;47.536;19.066;2023-08-20T01:17:03;-18771.47;;;20.03;100.00
60583;BME280;46415;47.536;19.066;2023-08-20T01:20:07;-18769.97;;;19.97;100.00
60583;BME280;46415;47.536;19.066;2023-08-20T01:23:31;-18769.31;;;19.95;100.00
60583;BME280;46415;47.536;19.066;2023-08-20T01:26:49;-18768.63;;;19.92;100.00
60583;BME280;46415;47.536;19.066;2023-08-20T01:29:56;-18768.34;;;19.91;100.00
60583;BME280;46415;47.536;19.066;2023-08-20T01:32:59;-18767.28;;;19.87;100.00
60583;BME280;46415;47.536;19.066;2023-08-20T01:36:06;-18766.84;;;19.86;100.00
60583;BME280;46415;47.536;19.066;2023-08-20T01:39:12;-18766.72;;;19.85;100.00
60583;BME280;46415;47.536;19.066;2023-08-20T01:42:17;-18766.31;;;19.84;100.00
60583;BME280;46415;47.536;19.066;2023-08-20T01:45:20;-18765.09;;;19.79;100.00
60583;BME280;46415;47.536;19.066;2023-08-20T01:48:24;-18762.66;;;19.70;100.00
60583;BME280;46415;47.536;19.066;2023-08-20T01:51:26;-18762.66;;;19.70;100.00
60583;BME280;46415;47.536;19.066;2023-08-20T01:54:29;-18761.44;;;19.66;100.00
60583;BME280;46415;47.536;19.066;2023-08-20T01:57:32;-18761.56;;;19.66;100.00
60583;BME280;46415;47.536;19.066;2023-08-20T02:00:35;-18761.16;;;19.65;100.00
60583;BME280;46415;47.536;19.066;2023-08-20T02:03:37;-18760.34;;;19.62;100.00
60583;BME280;46415;47.536;19.066;2023-08-20T02:06:40;-18760.75;;;19.63;100.00
60583;BME280;46415;47.536;19.066;2023-08-20T02:09:43;-18759.94;;;19.60;100.00
60583;BME280;46415;47.536;19.066;2023-08-20T02:12:45;-18760.06;;;19.61;100.00
60583;BME280;46415;47.536;19.066;2023-08-20T02:15:56;-18759.25;;;19.58;100.00
60583;BME280;46415;47.536;19.066;2023-08-20T02:19:02;-18757.63;;;19.51;100.00
60583;BME280;46415;47.536;19.066;2023-08-20T02:22:05;-18756.69;;;19.48;100.00
60583;BME280;46415;47.536;19.066;2023-08-20T02:25:07;-18754.78;;;19.41;100.00
60583;BME280;46415;47.536;19.066;2023-08-20T02:28:10;-18754.34;;;19.39;100.00
60583;BME280;46415;47.536;19.066;2023-08-20T02:31:13;-18754.50;;;19.40;100.00
60583;BME280;46415;47.536;19.066;2023-08-20T02:34:15;-18755.84;;;19.45;100.00
60583;BME280;46415;47.536;19.066;2023-08-20T02:37:18;-18754.78;;;19.41;100.00
60583;BME280;46415;47.536;19.066;2023-08-20T02:40:20;-18754.78;;;19.41;100.00
60583;BME280;46415;47.536;19.066;2023-08-20T02:43:23;-18753.94;;;19.38;100.00
60583;BME280;46415;47.536;19.066;2023-08-20T02:46:25;-18753.69;;;19.37;100.00
60583;BME280;46415;47.536;19.066;2023-08-20T02:49:28;-18752.88;;;19.34;100.00
60583;BME280;46415;47.536;19.066;2023-08-20T02:52:31;-18752.31;;;19.32;100.00
60583;BME280;46415;47.536;19.066;2023-08-20T02:55:33;-18752.06;;;19.31;100.00
60583;BME280;46415;47.536;19.066;2023-08-20T02:58:37;-18752.06;;;19.31;100.00
60583;BME280;46415;47.536;19.066;2023-08-20T03:01:40;-18751.25;;;19.28;100.00
60583;BME280;46415;47.536;19.066;2023-08-20T03:04:43;-18750.16;;;19.24;100.00
60583;BME280;46415;47.536;19.066;2023-08-20T03:07:45;-18749.19;;;19.20;100.00
60583;BME280;46415;47.536;19.066;2023-08-20T03:10:48;-18749.06;;;19.20;100.00
60583;BME280;46415;47.536;19.066;2023-08-20T03:13:50;-18748.78;;;19.18;100.00
60583;BME280;46415;47.536;19.066;2023-08-20T03:16:53;-18748.53;;;19.17;100.00
60583;BME280;46415;47.536;19.066;2023-08-20T03:19:56;-18747.97;;;19.15;100.00
60583;BME280;46415;47.536;19.066;2023-08-20T03:22:59;-18747.69;;;19.14;100.00
60583;BME280;46415;47.536;19.066;2023-08-20T03:26:01;-18747.16;;;19.12;100.00
60583;BME280;46415;47.536;19.066;2023-08-20T03:29:04;-18745.25;;;19.05;100.00
60583;BME280;46415;47.536;19.066;2023-08-20T03:32:07;-18745.00;;;19.04;100.00
60583;BME280;46415;47.536;19.066;2023-08-20T03:35:10;-18745.13;;;19.05;100.00
60583;BME280;46415;47.536;19.066;2023-08-20T03:38:13;-18745.53;;;19.06;100.00
60583;BME280;46415;47.536;19.066;2023-08-20T03:41:15;-18746.47;;;19.10;100.00
60583;BME280;46415;47.536;19.066;2023-08-20T03:44:18;-18747.44;;;19.13;100.00
60583;BME280;46415;47.536;19.066;2023-08-20T03:47:20;-18747.44;;;19.13;100.00
60583;BME280;46415;47.536;19.066;2023-08-20T03:50:23;-18746.47;;;19.10;100.00
60583;BME280;46415;47.536;19.066;2023-08-20T03:53:26;-18746.63;;;19.10;100.00
60583;BME280;46415;47.536;19.066;2023-08-20T03:56:28;-18746.88;;;19.11;100.00
60583;BME280;46415;47.536;19.066;2023-08-20T03:59:31;-18747.28;;;19.13;100.00
60583;BME280;46415;47.536;19.066;2023-08-20T04:02:34;-18749.06;;;19.20;100.00
60583;BME280;46415;47.536;19.066;2023-08-20T04:05:37;-18748.78;;;19.18;100.00
60583;BME280;46415;47.536;19.066;2023-08-20T04:08:39;-18749.06;;;19.20;100.00
60583;BME280;46415;47.536;19.066;2023-08-20T04:11:42;-18750.00;;;19.23;100.00
60583;BME280;46415;47.536;19.066;2023-08-20T04:14:44;-18749.19;;;19.20;100.00
60583;BME280;46415;47.536;19.066;2023-08-20T04:17:47;-18748.53;;;19.17;100.00
60583;BME280;46415;47.536;19.066;2023-08-20T04:20:51;-18749.75;;;19.22;100.00
60583;BME280;46415;47.536;19.066;2023-08-20T04:23:54;-18750.41;;;19.25;100.00
60583;BME280;46415;47.536;19.066;2023-08-20T04:26:57;-18750.28;;;19.24;100.00
60583;BME280;46415;47.536;19.066;2023-08-20T04:30:00;-18750.69;;;19.26;100.00
60583;BME280;46415;47.536;19.066;2023-08-20T04:33:03;-18751.25;;;19.28;100.00
60583;BME280;46415;47.536;19.066;2023-08-20T04:36:05;-18752.47;;;19.32;100.00
60583;BME280;46415;47.536;19.066;2023-08-20T04:39:08;-18754.91;;;19.41;100.00
60583;BME280;46415;47.536;19.066;2023-08-20T04:42:11;-18756.81;;;19.48;100.00
60583;BME280;46415;47.536;19.066;2023-08-20T04:45:13;-18758.84;;;19.56;100.00
60583;BME280;46415;47.536;19.066;2023-08-20T04:48:16;-18760.34;;;19.62;100.00
60583;BME280;46415;47.536;19.066;2023-08-20T04:51:20;-18763.59;;;19.74;100.00
60583;BME280;46415;47.536;19.066;2023-08-20T04:54:22;-18766.31;;;19.84;100.00
60583;BME280;46415;47.536;19.066;2023-08-20T04:57:25;-18769.56;;;19.96;100.00
60583;BME280;46415;47.536;19.066;2023-08-20T05:00:28;-18772.28;;;20.06;100.00
60583;BME280;46415;47.536;19.066;2023-08-20T05:03:31;-18775.13;;;20.17;100.00
60583;BME280;46415;47.536;19.066;2023-08-20T05:06:34;-18778.41;;;20.29;100.00
60583;BME280;46415;47.536;19.066;2023-08-20T05:09:36;-18782.47;;;20.44;100.00
60583;BME280;46415;47.536;19.066;2023-08-20T05:12:40;-18786.81;;;20.60;100.00
60583;BME280;46415;47.536;19.066;2023-08-20T05:15:42;-18795.22;;;20.92;100.00
60583;BME280;46415;47.536;19.066;2023-08-20T05:18:45;-18797.13;;;20.99;100.00
60583;BME280;46415;47.536;19.066;2023-08-20T05:21:47;-18799.28;;;21.07;100.00
60583;BME280;46415;47.536;19.066;2023-08-20T05:24:50;-18803.22;;;21.22;100.00
60583;BME280;46415;47.536;19.066;2023-08-20T05:27:53;-18803.78;;;21.24;100.00
60583;BME280;46415;47.536;19.066;2023-08-20T05:30:56;-18806.22;;;21.33;100.00
60583;BME280;46415;47.536;19.066;2023-08-20T05:33:59;-18810.97;;;21.50;100.00
60583;BME280;46415;47.536;19.066;2023-08-20T05:37:02;-18815.56;;;21.68;100.00
60583;BME280;46415;47.536;19.066;2023-08-20T05:40:06;-18818.81;;;21.80;100.00
60583;BME280;46415;47.536;19.066;2023-08-20T05:43:12;-18821.00;;;21.88;100.00
60583;BME280;46415;47.536;19.066;2023-08-20T05:46:15;-18821.25;;;21.89;100.00
60583;BME280;46415;47.536;19.066;2023-08-20T05:49:18;-18822.63;;;21.94;100.00
60583;BME280;46415;47.536;19.066;2023-08-20T05:52:21;-18827.50;;;22.12;100.00
60583;BME280;46415;47.536;19.066;2023-08-20T05:55:24;-18831.03;;;22.25;100.00
60583;BME280;46415;47.536;19.066;2023-08-20T05:58:26;-18833.88;;;22.36;100.00
60583;BME280;46415;47.536;19.066;2023-08-20T06:01:29;-18836.97;;;22.48;100.00
60583;BME280;46415;47.536;19.066;2023-08-20T06:04:32;-18841.59;;;22.65;100.00
60583;BME280;46415;47.536;19.066;2023-08-20T06:07:35;-18845.94;;;22.81;100.00
60583;BME280;46415;47.536;19.066;2023-08-20T06:10:37;-18851.59;;;23.02;100.00
60583;BME280;46415;47.536;19.066;2023-08-20T06:13:40;-18854.44;;;23.13;100.00
60583;BME280;46415;47.536;19.066;2023-08-20T06:16:44;-18856.47;;;23.20;100.00
60583;BME280;46415;47.536;19.066;2023-08-20T06:19:46;-18861.22;;;23.38;100.00
60583;BME280;46415;47.536;19.066;2023-08-20T06:22:49;-18862.03;;;23.41;100.00
60583;BME280;46415;47.536;19.066;2023-08-20T06:25:51;-18864.88;;;23.52;100.00
60583;BME280;46415;47.536;19.066;2023-08-20T06:28:54;-18869.06;;;23.68;100.00
60583;BME280;46415;47.536;19.066;2023-08-20T06:31:56;-18873.66;;;23.85;100.00
60583;BME280;46415;47.536;19.066;2023-08-20T06:34:59;-18873.41;;;23.84;100.00
60583;BME280;46415;47.536;19.066;2023-08-20T06:38:01;-18876.25;;;23.94;100.00
60583;BME280;46415;47.536;19.066;2023-08-20T06:41:04;-18879.22;;;24.06;100.00
60583;BME280;46415;47.536;19.066;2023-08-20T06:44:07;-18879.75;;;24.08;100.00
60583;BME280;46415;47.536;19.066;2023-08-20T06:47:09;-18881.91;;;24.16;100.00
60583;BME280;46415;47.536;19.066;2023-08-20T06:50:12;-18886.50;;;24.33;100.00
60583;BME280;46415;47.536;19.066;2023-08-20T06:53:15;-18889.91;;;24.46;100.00
60583;BME280;46415;47.536;19.066;2023-08-20T06:56:17;-18892.19;;;24.54;100.00
60583;BME280;46415;47.536;19.066;2023-08-20T06:59:20;-18898.53;;;24.78;100.00
60583;BME280;46415;47.536;19.066;2023-08-20T07:02:22;-18903.00;;;24.95;100.00
60583;BME280;46415;47.536;19.066;2023-08-20T07:05:25;-18905.84;;;25.05;100.00
60583;BME280;46415;47.536;19.066;2023-08-20T07:08:28;-18909.09;;;25.17;100.00
60583;BME280;46415;47.536;19.066;2023-08-20T07:11:30;-18914.88;;;25.39;100.00
60583;BME280;46415;47.536;19.066;2023-08-20T07:14:33;-18913.66;;;25.35;100.00
60583;BME280;46415;47.536;19.066;2023-08-20T07:17:36;-18919.06;;;25.55;100.00
60583;BME280;46415;47.536;19.066;2023-08-20T07:20:39;-18923.53;;;25.72;100.00
60583;BME280;46415;47.536;19.066;2023-08-20T07:23:42;-18927.03;;;25.85;100.00
60583;BME280;46415;47.536;19.066;2023-08-20T07:26:44;-18932.44;;;26.05;100.00
60583;BME280;46415;47.536;19.066;2023-08-20T07:29:47;-18934.72;;;26.14;100.00
60583;BME280;46415;47.536;19.066;2023-08-20T07:32:49;-18937.84;;;26.25;100.00
60583;BME280;46415;47.536;19.066;2023-08-20T07:35:52;-18942.00;;;26.41;100.00
60583;BME280;46415;47.536;19.066;2023-08-20T07:38:54;-18943.91;;;26.48;100.00
60583;BME280;46415;47.536;19.066;2023-08-20T07:41:57;-18948.09;;;26.64;100.00
60583;BME280;46415;47.536;19.066;2023-08-20T07:44:59;-18951.31;;;26.76;100.00
60583;BME280;46415;47.536;19.066;2023-08-20T07:48:02;-18955.09;;;26.90;100.00
60583;BME280;46415;47.536;19.066;2023-08-20T07:51:08;-18960.09;;;27.09;98.47
60583;BME280;46415;47.536;19.066;2023-08-20T07:54:11;-18962.78;;;27.19;99.90
60583;BME280;46415;47.536;19.066;2023-08-20T07:57:13;-18964.53;;;27.26;98.33
60583;BME280;46415;47.536;19.066;2023-08-20T08:00:16;-18970.72;;;27.49;97.79
60583;BME280;46415;47.536;19.066;2023-08-20T08:03:19;-18971.41;;;27.51;96.45
60583;BME280;46415;47.536;19.066;2023-08-20T08:06:21;-18974.78;;;27.64;96.28
60583;BME280;46415;47.536;19.066;2023-08-20T08:09:27;-18979.09;;;27.80;93.84
60583;BME280;46415;47.536;19.066;2023-08-20T08:12:29;-18984.75;;;28.01;92.80
60583;BME280;46415;47.536;19.066;2023-08-20T08:15:32;-18986.63;;;28.09;94.22
60583;BME280;46415;47.536;19.066;2023-08-20T08:18:34;-18991.19;;;28.26;92.11
60583;BME280;46415;47.536;19.066;2023-08-20T08:21:37;-18994.16;;;28.37;93.48
60583;BME280;46415;47.536;19.066;2023-08-20T08:24:39;-18997.78;;;28.51;93.63
60583;BME280;46415;47.536;19.066;2023-08-20T08:27:44;-18999.69;;;28.58;93.87
60583;BME280;46415;47.536;19.066;2023-08-20T08:31:01;-19005.88;;;28.81;94.13
60583;BME280;46415;47.536;19.066;2023-08-20T08:34:05;-19012.06;;;29.04;90.28
60583;BME280;46415;47.536;19.066;2023-08-20T08:37:08;-19017.56;;;29.25;84.90
60583;BME280;46415;47.536;19.066;2023-08-20T08:40:11;-19022.94;;;29.45;82.58
60583;BME280;46415;47.536;19.066;2023-08-20T08:43:13;-19026.19;;;29.57;83.23
60583;BME280;46415;47.536;19.066;2023-08-20T08:46:19;-19027.53;;;29.62;81.90
60583;BME280;46415;47.536;19.066;2023-08-20T08:49:22;-19029.53;;;29.70;79.74
60583;BME280;46415;47.536;19.066;2023-08-20T08:52:25;-19031.81;;;29.79;81.53
60583;BME280;46415;47.536;19.066;2023-08-20T08:55:28;-19035.72;;;29.93;77.87
60583;BME280;46415;47.536;19.066;2023-08-20T08:58:31;-19038.94;;;30.06;73.69
60583;BME280;46415;47.536;19.066;2023-08-20T09:01:37;-19039.63;;;30.08;74.62
60583;BME280;46415;47.536;19.066;2023-08-20T09:04:41;-19039.88;;;30.09;76.29
60583;BME280;46415;47.536;19.066;2023-08-20T09:07:43;-19045.25;;;30.29;73.05
60583;BME280;46415;47.536;19.066;2023-08-20T09:10:49;-19048.34;;;30.41;70.19
60583;BME280;46415;47.536;19.066;2023-08-20T09:13:52;-19050.91;;;30.51;72.60
60583;BME280;46415;47.536;19.066;2023-08-20T09:16:59;-19050.22;;;30.48;72.59
60583;BME280;46415;47.536;19.066;2023-08-20T09:20:01;-19054.13;;;30.63;68.57
60583;BME280;46415;47.536;19.066;2023-08-20T09:23:10;-19056.94;;;30.73;68.77
60583;BME280;46415;47.536;19.066;2023-08-20T09:26:12;-19057.59;;;30.76;69.27
60583;BME280;46415;47.536;19.066;2023-08-20T09:29:16;-19060.16;;;30.86;66.88
60583;BME280;46415;47.536;19.066;2023-08-20T09:35:22;-19060.56;;;30.87;67.64
60583;BME280;46415;47.536;19.066;2023-08-20T09:38:25;-19065.13;;;31.04;68.88
60583;BME280;46415;47.536;19.066;2023-08-20T09:41:28;-19064.84;;;31.03;69.40
60583;BME280;46415;47.536;19.066;2023-08-20T09:44:35;-19063.38;;;30.98;68.06
60583;BME280;46415;47.536;19.066;2023-08-20T09:47:38;-19061.78;;;30.92;69.18
60583;BME280;46415;47.536;19.066;2023-08-20T09:50:41;-19065.66;;;31.06;67.79
60583;BME280;46415;47.536;19.066;2023-08-20T09:54:09;-19070.50;;;31.25;68.83
60583;BME280;46415;47.536;19.066;2023-08-20T09:57:07;-19075.72;;;31.44;68.00
60583;BME280;46415;47.536;19.066;2023-08-20T10:00:13;-19079.06;;;31.57;64.70
60583;BME280;46415;47.536;19.066;2023-08-20T10:03:15;-19081.75;;;31.67;62.87
60583;BME280;46415;47.536;19.066;2023-08-20T10:06:18;-19078.13;;;31.53;64.84
60583;BME280;46415;47.536;19.066;2023-08-20T10:09:21;-19080.41;;;31.62;62.30
60583;BME280;46415;47.536;19.066;2023-08-20T10:12:25;-19079.75;;;31.59;63.66
60583;BME280;46415;47.536;19.066;2023-08-20T10:15:27;-19074.78;;;31.41;61.55
60583;BME280;46415;47.536;19.066;2023-08-20T10:18:31;-19079.87;;;31.60;65.53
60583;BME280;46415;47.536;19.066;2023-08-20T10:21:36;-19083.78;;;31.75;62.73
60583;BME280;46415;47.536;19.066;2023-08-20T10:24:52;-19084.03;;;31.76;64.08
60583;BME280;46415;47.536;19.066;2023-08-20T10:28:05;-19086.03;;;31.83;62.37
60583;BME280;46415;47.536;19.066;2023-08-20T10:31:13;-19084.84;;;31.79;63.98
60583;BME280;46415;47.536;19.066;2023-08-20T10:34:33;-19090.88;;;32.01;62.30
60583;BME280;46415;47.536;19.066;2023-08-20T10:37:37;-19090.72;;;32.01;59.50
60583;BME280;46415;47.536;19.066;2023-08-20T10:40:58;-19093.81;;;32.13;60.29
60583;BME280;46415;47.536;19.066;2023-08-20T10:44:00;-19096.22;;;32.22;60.53
60583;BME280;46415;47.536;19.066;2023-08-20T10:47:03;-19102.13;;;32.44;60.97
60583;BME280;46415;47.536;19.066;2023-08-20T10:50:09;-19105.75;;;32.58;58.67
60583;BME280;46415;47.536;19.066;2023-08-20T10:53:13;-19107.22;;;32.63;59.34
60583;BME280;46415;47.536;19.066;2023-08-20T10:56:16;-19103.88;;;32.51;57.03
60583;BME280;46415;47.536;19.066;2023-08-20T10:59:23;-19105.47;;;32.57;57.20
60583;BME280;46415;47.536;19.066;2023-08-20T11:02:27;-19110.69;;;32.76;56.38
60583;BME280;46415;47.536;19.066;2023-08-20T11:05:30;-19112.72;;;32.84;56.90
60583;BME280;46415;47.536;19.066;2023-08-20T11:08:33;-19115.13;;;32.93;57.19
60583;BME280;46415;47.536;19.066;2023-08-20T11:11:39;-19116.31;;;32.98;57.21
60583;BME280;46415;47.536;19.066;2023-08-20T11:14:45;-19119.00;;;33.08;54.97
60583;BME280;46415;47.536;19.066;2023-08-20T11:17:48;-19119.94;;;33.11;55.22
60583;BME280;46415;47.536;19.066;2023-08-20T11:20:53;-19120.47;;;33.13;54.66
60583;BME280;46415;47.536;19.066;2023-08-20T11:23:56;-19113.25;;;32.86;52.47
60583;BME280;46415;47.536;19.066;2023-08-20T11:26:59;-19107.34;;;32.64;51.99
60583;BME280;46415;47.536;19.066;2023-08-20T11:30:03;-19112.72;;;32.84;51.69
60583;BME280;46415;47.536;19.066;2023-08-20T11:33:06;-19108.28;;;32.67;52.31
60583;BME280;46415;47.536;19.066;2023-08-20T11:36:09;-19110.84;;;32.77;53.19
60583;BME280;46415;47.536;19.066;2023-08-20T11:39:12;-19108.44;;;32.68;54.95
60583;BME280;46415;47.536;19.066;2023-08-20T11:42:14;-19113.38;;;32.87;56.90
60583;BME280;46415;47.536;19.066;2023-08-20T11:45:17;-19119.00;;;33.08;53.79
60583;BME280;46415;47.536;19.066;2023-08-20T11:48:20;-19121.13;;;33.16;51.84
60583;BME280;46415;47.536;19.066;2023-08-20T11:51:23;-19119.81;;;33.11;52.83
60583;BME280;46415;47.536;19.066;2023-08-20T11:54:26;-19117.78;;;33.03;51.81
60583;BME280;46415;47.536;19.066;2023-08-20T11:57:29;-19121.69;;;33.18;53.54
60583;BME280;46415;47.536;19.066;2023-08-20T12:00:32;-19126.91;;;33.38;52.92
60583;BME280;46415;47.536;19.066;2023-08-20T12:03:34;-19123.28;;;33.24;53.23
60583;BME280;46415;47.536;19.066;2023-08-20T12:06:39;-19111.50;;;32.79;52.73
60583;BME280;46415;47.536;19.066;2023-08-20T12:09:42;-19109.22;;;32.71;54.77
60583;BME280;46415;47.536;19.066;2023-08-20T12:12:45;-19113.78;;;32.88;53.04
60583;BME280;46415;47.536;19.066;2023-08-20T12:15:50;-19118.84;;;33.07;52.62
60583;BME280;46415;47.536;19.066;2023-08-20T12:18:55;-19115.25;;;32.94;51.10
60583;BME280;46415;47.536;19.066;2023-08-20T12:21:58;-19115.78;;;32.96;51.60
60583;BME280;46415;47.536;19.066;2023-08-20T12:25:00;-19113.38;;;32.87;52.21
60583;BME280;46415;47.536;19.066;2023-08-20T12:28:03;-19108.03;;;32.66;51.94
60583;BME280;46415;47.536;19.066;2023-08-20T12:31:07;-19113.91;;;32.89;52.59
60583;BME280;46415;47.536;19.066;2023-08-20T12:34:10;-19111.50;;;32.79;51.74
60583;BME280;46415;47.536;19.066;2023-08-20T12:37:12;-19116.59;;;32.99;52.08
60583;BME280;46415;47.536;19.066;2023-08-20T12:40:15;-19119.00;;;33.08;53.59
60583;BME280;46415;47.536;19.066;2023-08-20T12:43:18;-19120.47;;;33.13;52.07
60583;BME280;46415;47.536;19.066;2023-08-20T12:46:20;-19115.78;;;32.96;51.41
60583;BME280;46415;47.536;19.066;2023-08-20T12:49:23;-19119.94;;;33.11;53.30
60583;BME280;46415;47.536;19.066;2023-08-20T12:52:25;-19122.34;;;33.20;51.13
60583;BME280;46415;47.536;19.066;2023-08-20T12:55:28;-19116.06;;;32.97;51.25
60583;BME280;46415;47.536;19.066;2023-08-20T12:58:31;-19120.34;;;33.13;51.36
60583;BME280;46415;47.536;19.066;2023-08-20T13:01:33;-19123.00;;;33.23;50.77
60583;BME280;46415;47.536;19.066;2023-08-20T13:04:36;-19123.41;;;33.25;50.00
60583;BME280;46415;47.536;19.066;2023-08-20T13:07:39;-19125.03;;;33.31;50.92
60583;BME280;46415;47.536;19.066;2023-08-20T13:10:41;-19125.28;;;33.32;48.09
60583;BME280;46415;47.536;19.066;2023-08-20T13:13:46;-19120.87;;;33.15;50.25
60583;BME280;46415;47.536;19.066;2023-08-20T13:16:49;-19129.44;;;33.47;50.32
60583;BME280;46415;47.536;19.066;2023-08-20T13:19:52;-19125.56;;;33.33;50.93
60583;BME280;46415;47.536;19.066;2023-08-20T13:22:54;-19127.84;;;33.41;50.04
60583;BME280;46415;47.536;19.066;2023-08-20T13:25:57;-19126.22;;;33.35;46.96
60583;BME280;46415;47.536;19.066;2023-08-20T13:28:59;-19123.41;;;33.25;45.91
60583;BME280;46415;47.536;19.066;2023-08-20T13:32:02;-19118.72;;;33.07;45.44
60583;BME280;46415;47.536;19.066;2023-08-20T13:35:05;-19124.09;;;33.27;46.42
60583;BME280;46415;47.536;19.066;2023-08-20T13:38:07;-19120.34;;;33.13;45.57
60583;BME280;46415;47.536;19.066;2023-08-20T13:41:10;-19125.41;;;33.32;46.75
60583;BME280;46415;47.536;19.066;2023-08-20T13:44:13;-19131.31;;;33.54;47.58
60583;BME280;46415;47.536;19.066;2023-08-20T13:47:16;-19132.37;;;33.58;45.17
60583;BME280;46415;47.536;19.066;2023-08-20T13:50:18;-19128.91;;;33.45;45.26
60583;BME280;46415;47.536;19.066;2023-08-20T13:53:21;-19121.69;;;33.18;46.13
60583;BME280;46415;47.536;19.066;2023-08-20T13:56:23;-19119.81;;;33.11;45.80
60583;BME280;46415;47.536;19.066;2023-08-20T13:59:27;-19122.47;;;33.21;46.95
60583;BME280;46415;47.536;19.066;2023-08-20T14:02:30;-19125.97;;;33.34;45.90
60583;BME280;46415;47.536;19.066;2023-08-20T14:05:33;-19131.19;;;33.54;46.09
60583;BME280;46415;47.536;19.066;2023-08-20T14:08:35;-19134.25;;;33.66;45.24
60583;BME280;46415;47.536;19.066;2023-08-20T14:11:38;-19136.00;;;33.72;45.40
60583;BME280;46415;47.536;19.066;2023-08-20T14:14:40;-19136.41;;;33.74;45.59
60583;BME280;46415;47.536;19.066;2023-08-20T14:17:43;-19134.78;;;33.68;45.60
60583;BME280;46415;47.536;19.066;2023-08-20T14:20:45;-19128.91;;;33.45;45.49
60583;BME280;46415;47.536;19.066;2023-08-20T14:23:48;-19124.50;;;33.29;45.85
60583;BME280;46415;47.536;19.066;2023-08-20T14:26:50;-19126.91;;;33.38;47.28
60583;BME280;46415;47.536;19.066;2023-08-20T14:29:53;-19123.94;;;33.27;46.82
60583;BME280;46415;47.536;19.066;2023-08-20T14:32:55;-19123.69;;;33.26;47.65
60583;BME280;46415;47.536;19.066;2023-08-20T14:35:58;-19133.31;;;33.62;45.93
60583;BME280;46415;47.536;19.066;2023-08-20T14:39:00;-19135.06;;;33.69;44.60
60583;BME280;46415;47.536;19.066;2023-08-20T14:42:03;-19138.53;;;33.82;45.51
60583;BME280;46415;47.536;19.066;2023-08-20T14:45:06;-19144.53;;;34.05;45.51
60583;BME280;46415;47.536;19.066;2023-08-20T14:48:09;-19141.22;;;33.92;45.11
60583;BME280;46415;47.536;19.066;2023-08-20T14:51:11;-19145.22;;;34.07;46.31
60583;BME280;46415;47.536;19.066;2023-08-20T14:54:15;-19151.37;;;34.30;44.20
60583;BME280;46415;47.536;19.066;2023-08-20T14:57:17;-19159.38;;;34.61;43.76
60583;BME280;46415;47.536;19.066;2023-08-20T15:00:21;-19164.47;;;34.80;44.63
60583;BME280;46415;47.536;19.066;2023-08-20T15:03:25;-19175.41;;;35.22;44.53
60583;BME280;46415;47.536;19.066;2023-08-20T15:06:27;-19185.00;;;35.58;42.80
60583;BME280;46415;47.536;19.066;2023-08-20T15:09:31;-19178.34;;;35.33;43.26
60583;BME280;46415;47.536;19.066;2023-08-20T15:12:34;-19178.63;;;35.34;44.09
60583;BME280;46415;47.536;19.066;2023-08-20T15:15:37;-19184.75;;;35.57;43.02
60583;BME280;46415;47.536;19.066;2023-08-20T15:18:39;-19183.16;;;35.51;42.34
60583;BME280;46415;47.536;19.066;2023-08-20T15:21:42;-19188.50;;;35.71;43.16
60583;BME280;46415;47.536;19.066;2023-08-20T15:24:45;-19204.75;;;36.33;41.69
60583;BME280;46415;47.536;19.066;2023-08-20T15:27:47;-19220.75;;;36.94;41.67
60583;BME280;46415;47.536;19.066;2023-08-20T15:30:50;-19250.03;;;38.05;38.42
60583;BME280;46415;47.536;19.066;2023-08-20T15:33:53;-19291.47;;;39.63;36.58
60583;BME280;46415;47.536;19.066;2023-08-20T15:36:56;-19336.03;;;41.33;31.45
60583;BME280;46415;47.536;19.066;2023-08-20T15:39:58;-19365.25;;;42.45;28.75
60583;BME280;46415;47.536;19.066;2023-08-20T15:43:01;-19368.28;;;42.57;29.35
60583;BME280;46415;47.536;19.066;2023-08-20T15:46:04;-19383.63;;;43.15;28.00
60583;BME280;46415;47.536;19.066;2023-08-20T15:49:06;-19412.25;;;44.25;25.69